Time;durP1;ratioP1;P1;durP2;ratioP2;P2;SDS_P1;SDS_P2;PMS_P1;PMS_P2;Temp;Humidity;BMP_temperature;BMP_pressure;BME280_temperature;BME280_humidity;BME280_pressure;Samples;Min_cycle;Max_cycle;Signal;HPM_P1;HPM_P2
2022/08/24 00:00:25;;;;;;;25.58;22.83;;;;;;;18.45;100.00;101464.09;1954705;28;20038;-73
2022/08/24 00:01:23;;;;;;;24.70;21.85;;;;;;;18.38;100.00;101458.38;1948843;28;20048;-72
2022/08/24 00:02:20;;;;;;;22.80;20.65;;;;;;;18.35;100.00;101458.59;1947868;29;20038;-72
2022/08/24 00:03:17;;;;;;;26.05;21.42;;;;;;;18.32;100.00;101464.06;1947960;29;20046;-73
2022/08/24 00:04:15;;;;;;;24.73;22.13;;;;;;;18.24;100.00;101460.13;1954824;28;20170;-72
2022/08/24 00:05:13;;;;;;;24.63;22.00;;;;;;;18.19;100.00;101464.00;1954968;28;20042;-72
2022/08/24 00:06:16;;;;;;;25.65;22.45;;;;;;;18.18;100.00;101463.19;1948659;28;20058;-73
2022/08/24 00:07:14;;;;;;;25.15;22.52;;;;;;;18.19;100.00;101464.88;1947234;29;20035;-72
2022/08/24 00:08:13;;;;;;;24.98;22.10;;;;;;;18.22;100.00;101458.53;1947410;29;20091;-73
2022/08/24 00:09:10;;;;;;;25.58;22.67;;;;;;;18.22;100.00;101459.41;1947892;28;20054;-73
2022/08/24 00:10:10;;;;;;;26.98;23.45;;;;;;;18.24;100.00;101454.00;1947953;29;20063;-72
2022/08/24 00:11:08;;;;;;;27.02;24.02;;;;;;;18.22;100.00;101462.03;1947927;28;20038;-72
2022/08/24 00:12:05;;;;;;;25.75;23.10;;;;;;;18.22;100.00;101453.25;1947942;28;20070;-72
2022/08/24 00:13:03;;;;;;;28.17;23.20;;;;;;;18.21;100.00;101459.50;1947816;29;20067;-72
2022/08/24 00:14:00;;;;;;;27.63;22.92;;;;;;;18.18;100.00;101451.75;1947949;29;20026;-71
2022/08/24 00:14:58;;;;;;;29.23;26.00;;;;;;;18.17;100.00;101458.84;1954770;28;20045;-71
2022/08/24 00:15:56;;;;;;;28.65;25.75;;;;;;;18.17;100.00;101458.00;1947318;28;20031;-72
2022/08/24 00:16:53;;;;;;;27.58;24.67;;;;;;;18.15;100.00;101458.09;1947132;29;20050;-71
2022/08/24 00:17:50;;;;;;;32.75;25.55;;;;;;;18.15;100.00;101450.16;1947831;29;20050;-71
2022/08/24 00:18:48;;;;;;;28.58;25.27;;;;;;;18.15;100.00;101463.38;1947877;29;20142;-72
2022/08/24 00:19:46;;;;;;;31.13;24.92;;;;;;;18.12;100.00;101456.50;1947839;29;20387;-71
2022/08/24 00:20:45;;;;;;;27.88;24.98;;;;;;;18.12;100.00;101458.28;1954809;28;20034;-71
2022/08/24 00:21:42;;;;;;;28.63;25.27;;;;;;;18.11;100.00;101461.88;1954901;28;20502;-72
2022/08/24 00:22:40;;;;;;;28.58;24.60;;;;;;;18.10;100.00;101462.84;1948451;28;20033;-71
2022/08/24 00:23:38;;;;;;;28.77;25.27;;;;;;;18.07;100.00;101466.47;1947839;28;20027;-71
2022/08/24 00:24:36;;;;;;;28.42;24.80;;;;;;;18.02;100.00;101453.59;1947760;29;20473;-72
2022/08/24 00:25:34;;;;;;;29.75;26.60;;;;;;;18.00;100.00;101466.03;1947745;28;20034;-72
2022/08/24 00:26:31;;;;;;;27.95;24.88;;;;;;;17.97;100.00;101465.38;1945729;29;20498;-72
2022/08/24 00:27:29;;;;;;;28.63;25.73;;;;;;;17.95;100.00;101461.97;1947495;29;20483;-72
2022/08/24 00:28:26;;;;;;;28.77;25.90;;;;;;;17.94;100.00;101465.56;1947830;28;20106;-72
2022/08/24 00:29:24;;;;;;;31.25;27.38;;;;;;;17.92;100.00;101467.47;1947702;29;20427;-72
2022/08/24 00:30:22;;;;;;;31.63;27.23;;;;;;;17.93;100.00;101464.72;1947812;29;20035;-71
2022/08/24 00:31:20;;;;;;;36.95;28.65;;;;;;;17.94;100.00;101466.44;1947778;29;20031;-71
2022/08/24 00:32:17;;;;;;;34.22;30.15;;;;;;;17.94;100.00;101469.06;1947708;29;20403;-71
2022/08/24 00:33:15;;;;;;;33.58;29.92;;;;;;;17.96;100.00;101468.97;1947771;29;20038;-72
2022/08/24 00:34:13;;;;;;;32.40;28.90;;;;;;;17.96;100.00;101471.63;1947753;29;20027;-71
2022/08/24 00:35:13;;;;;;;31.10;27.65;;;;;;;17.94;100.00;101471.72;1954682;28;20019;-72
2022/08/24 00:36:10;;;;;;;30.30;25.45;;;;;;;17.93;100.00;101470.00;1954749;28;20026;-72
2022/08/24 00:37:08;;;;;;;31.88;27.05;;;;;;;17.92;100.00;101478.88;1948224;28;20036;-72
2022/08/24 00:38:05;;;;;;;31.98;28.50;;;;;;;17.90;100.00;101475.50;1947686;29;20035;-72
2022/08/24 00:39:04;;;;;;;40.08;30.75;;;;;;;17.88;100.00;101477.38;1947665;29;20030;-71
2022/08/24 00:40:10;;;;;;;33.72;30.08;;;;;;;17.89;100.00;101479.06;1947686;28;20034;-71
2022/08/24 00:41:07;;;;;;;33.35;29.67;;;;;;;17.85;100.00;101477.56;1947713;28;20499;-71
2022/08/24 00:42:05;;;;;;;36.08;30.63;;;;;;;17.83;100.00;101476.81;1947667;29;20376;-71
2022/08/24 00:43:06;;;;;;;38.25;33.28;;;;;;;17.85;100.00;101477.56;1947611;29;20027;-71
2022/08/24 00:44:04;;;;;;;43.47;33.78;;;;;;;17.80;100.00;101475.22;1947674;28;20360;-71
2022/08/24 00:45:02;;;;;;;38.45;33.75;;;;;;;17.79;100.00;101473.50;1947715;29;20035;-71
2022/08/24 00:46:17;;;;;;;38.42;34.30;;;;;;;17.80;100.00;101469.97;1947625;28;20031;-72
2022/08/24 00:47:30;;;;;;;39.95;32.78;;;;;;;17.77;100.00;101470.97;1947515;28;20039;-72
2022/08/24 00:48:33;;;;;;;33.78;29.98;;;;;;;17.80;100.00;101474.38;1947576;29;20039;-71
2022/08/24 00:49:41;;;;;;;32.92;29.52;;;;;;;17.82;100.00;101470.69;1947594;29;20035;-71
2022/08/24 00:50:55;;;;;;;35.17;29.95;;;;;;;17.82;100.00;101472.50;1947603;29;20039;-71
2022/08/24 00:52:11;;;;;;;38.63;29.83;;;;;;;17.81;100.00;101470.78;1947676;28;20055;-71
2022/08/24 00:53:38;;;;;;;35.55;29.30;;;;;;;17.80;100.00;101469.09;1947668;28;20081;-72
2022/08/24 00:54:44;;;;;;;37.17;29.73;;;;;;;17.76;100.00;101471.91;1947601;28;20082;-71
2022/08/24 00:55:50;;;;;;;39.08;32.53;;;;;;;17.76;100.00;101469.28;1947673;28;20171;-71
2022/08/24 00:56:57;;;;;;;37.58;31.70;;;;;;;17.76;100.00;101473.72;1945582;28;20031;-71
2022/08/24 00:58:02;;;;;;;37.83;30.70;;;;;;;17.71;100.00;101471.38;1947521;29;20027;-71
2022/08/24 00:59:09;;;;;;;37.03;30.55;;;;;;;17.69;100.00;101467.97;1947572;29;20471;-72
2022/08/24 01:00:20;;;;;;;37.80;31.88;;;;;;;17.70;100.00;101474.97;1954567;28;20026;-71
2022/08/24 01:01:18;;;;;;;43.97;33.88;;;;;;;17.66;100.00;101475.25;1953659;28;20034;-71
2022/08/24 01:02:25;;;;;;;39.78;34.03;;;;;;;17.69;100.00;101473.25;1947506;29;20407;-72
2022/08/24 01:03:25;;;;;;;50.38;37.65;;;;;;;17.66;100.00;101478.75;1947521;28;20475;-71
2022/08/24 01:04:37;;;;;;;;;;;;;;;17.71;100.00;101479.28;1947997;29;20419;-71
2022/08/24 01:05:37;;;;;;;44.53;33.58;;;;;;;17.62;100.00;101482.53;1947412;28;20322;-72
2022/08/24 01:06:35;;;;;;;41.33;33.45;;;;;;;17.68;100.00;101478.63;1947590;28;20394;-71
2022/08/24 01:07:34;;;;;;;46.70;35.58;;;;;;;17.69;100.00;101478.53;1947331;29;20050;-71
2022/08/24 01:08:33;;;;;;;44.75;35.03;;;;;;;17.71;100.00;101475.78;1947456;29;20035;-71
2022/08/24 01:09:30;;;;;;;48.03;36.38;;;;;;;17.73;100.00;101480.03;1947470;28;20050;-71
2022/08/24 01:10:34;;;;;;;45.22;34.90;;;;;;;17.74;100.00;101475.59;1947483;28;20039;-72
2022/08/24 01:11:33;;;;;;;44.17;34.63;;;;;;;17.74;100.00;101473.81;1946883;28;20023;-71
2022/08/24 01:12:34;;;;;;;48.10;35.42;;;;;;;17.74;100.00;101471.19;1947332;28;20110;-72
2022/08/24 01:13:33;;;;;;;49.95;36.72;;;;;;;17.73;100.00;101474.75;1947436;28;20027;-71
2022/08/24 01:14:31;;;;;;;45.90;36.72;;;;;;;17.73;100.00;101469.47;1947470;29;20035;-71
2022/08/24 01:15:33;;;;;;;49.15;35.90;;;;;;;17.74;100.00;101470.34;1947363;29;20411;-71
2022/08/24 01:19:22;;;;;;;47.25;36.63;;;;;;;17.66;100.00;101462.91;1947573;29;20039;-71
2022/08/24 01:20:22;;;;;;;45.45;34.78;;;;;;;17.64;100.00;101470.06;1954377;28;20120;-71
2022/08/24 01:21:33;;;;;;;48.00;36.60;;;;;;;17.63;100.00;101468.38;1954514;28;20114;-71
2022/08/24 01:23:01;;;;;;;47.47;36.78;;;;;;;17.61;100.00;101467.59;1947352;28;20038;-71
2022/08/24 01:24:03;;;;;;;44.97;35.63;;;;;;;17.60;100.00;101468.56;1947362;28;20470;-71
2022/08/24 01:25:00;;;;;;;45.00;35.13;;;;;;;17.60;100.00;101471.19;1947290;28;20031;-71
2022/08/24 01:25:59;;;;;;;42.00;33.35;;;;;;;17.60;100.00;101472.06;1947367;29;20064;-71
2022/08/24 01:26:57;;;;;;;43.40;33.95;;;;;;;17.61;100.00;101475.53;1945107;29;20050;-71
2022/08/24 01:28:02;;;;;;;42.38;33.97;;;;;;;17.59;100.00;101474.78;1947133;29;20042;-71
2022/08/24 01:29:12;;;;;;;45.05;34.67;;;;;;;17.56;100.00;101472.34;1947340;29;20090;-71
2022/08/24 01:30:14;;;;;;;42.67;34.05;;;;;;;17.54;100.00;101474.19;1947360;28;20076;-71
2022/08/24 01:31:12;;;;;;;42.88;34.33;;;;;;;17.55;100.00;101478.56;1947274;29;20470;-71
2022/08/24 01:32:12;;;;;;;47.05;34.85;;;;;;;17.54;100.00;101476.84;1947250;28;20035;-71
2022/08/24 01:33:22;;;;;;;43.70;33.57;;;;;;;17.52;100.00;101478.75;1947360;29;20054;-71
2022/08/24 01:34:20;;;;;;;41.25;32.45;;;;;;;17.51;100.00;101475.25;1947274;29;20353;-71
2022/08/24 01:35:17;;;;;;;43.50;34.70;;;;;;;17.50;100.00;101474.41;1947361;29;20129;-71
2022/08/24 01:36:32;;;;;;;43.55;35.17;;;;;;;17.48;100.00;101468.38;1947211;29;20039;-72
2022/08/24 01:37:31;;;;;;;48.78;35.28;;;;;;;17.48;100.00;101478.94;1947211;29;20033;-71
2022/08/24 01:38:31;;;;;;;51.75;38.20;;;;;;;17.47;100.00;101474.59;1954142;28;20078;-71
2022/08/24 01:39:37;;;;;;;56.45;38.90;;;;;;;17.46;100.00;101472.91;1954372;28;20038;-72
2022/08/24 01:40:43;;;;;;;50.40;38.22;;;;;;;17.42;100.00;101470.56;1947176;28;20125;-71
2022/08/24 01:41:41;;;;;;;55.90;39.78;;;;;;;17.41;100.00;101469.69;1947284;28;20031;-71
2022/08/24 01:42:39;;;;;;;49.33;37.10;;;;;;;17.43;100.00;101473.09;1947204;29;20093;-71
2022/08/24 01:43:36;;;;;;;46.17;35.78;;;;;;;17.44;100.00;101469.50;1947256;29;20150;-71
2022/08/24 01:44:37;;;;;;;44.65;34.97;;;;;;;17.44;100.00;101469.50;1947245;29;20027;-71
2022/08/24 01:45:34;;;;;;;;;;;;;;;17.31;100.00;101464.13;1947679;29;20031;-71
2022/08/24 01:46:31;;;;;;;49.60;36.67;;;;;;;17.31;100.00;101463.31;1947344;28;20433;-71
2022/08/24 01:47:29;;;;;;;50.13;36.47;;;;;;;17.34;100.00;101463.09;1947004;29;20459;-71
2022/08/24 01:48:26;;;;;;;52.33;38.10;;;;;;;17.33;100.00;101458.78;1947264;29;20043;-71
2022/08/24 01:49:33;;;;;;;51.80;38.13;;;;;;;17.33;100.00;101462.25;1947128;29;20063;-71
2022/08/24 01:50:30;;;;;;;56.05;39.35;;;;;;;17.32;100.00;101459.72;1947246;29;20110;-71
2022/08/24 01:51:31;;;;;;;54.30;39.40;;;;;;;17.31;100.00;101463.31;1953981;28;20034;-71
2022/08/24 01:52:28;;;;;;;59.85;42.50;;;;;;;17.31;100.00;101460.66;1954094;28;20032;-70
2022/08/24 01:53:26;;;;;;;62.45;43.30;;;;;;;17.32;100.00;101455.31;1953937;28;20560;-70
2022/08/24 01:54:25;;;;;;;65.63;44.78;;;;;;;17.33;100.00;101461.41;1954166;28;20162;-70
2022/08/24 01:55:24;;;;;;;61.03;43.60;;;;;;;17.31;100.00;101458.03;1946486;28;20026;-70
2022/08/24 01:56:21;;;;;;;66.88;42.92;;;;;;;17.33;100.00;101466.69;1946049;29;20487;-70
2022/08/24 01:57:19;;;;;;;63.58;44.95;;;;;;;17.30;100.00;101464.22;1945553;29;20058;-71
2022/08/24 01:58:17;;;;;;;65.80;45.10;;;;;;;17.31;100.00;101465.94;1946883;29;20042;-70
2022/08/24 01:59:15;;;;;;;73.82;47.00;;;;;;;17.31;100.00;101460.66;1946878;29;20047;-70
2022/08/24 02:00:14;;;;;;;75.45;47.08;;;;;;;17.31;100.00;101465.94;1947012;29;20035;-70
2022/08/24 02:01:16;;;;;;;69.78;45.55;;;;;;;17.31;100.00;101468.59;1946855;29;20116;-70
2022/08/24 02:02:29;;;;;;;63.15;43.38;;;;;;;17.29;100.00;101463.41;1946870;29;20049;-70
2022/08/24 02:03:27;;;;;;;57.83;41.75;;;;;;;17.27;100.00;101461.81;1946840;28;20129;-70
2022/08/24 02:04:25;;;;;;;56.40;41.60;;;;;;;17.24;100.00;101458.41;1946829;28;20039;-70
2022/08/24 02:05:23;;;;;;;56.63;42.08;;;;;;;17.23;100.00;101459.34;1946927;28;20094;-70
2022/08/24 02:06:21;;;;;;;64.25;43.70;;;;;;;17.23;100.00;101464.63;1946808;29;20082;-70
2022/08/24 02:07:18;;;;;;;60.50;43.60;;;;;;;17.22;100.00;101465.56;1946839;29;20113;-70
2022/08/24 02:08:16;;;;;;;67.55;45.30;;;;;;;17.21;100.00;101463.84;1946855;29;20055;-70
2022/08/24 02:09:14;;;;;;;67.53;45.88;;;;;;;17.19;100.00;101471.03;1946920;29;20023;-70
2022/08/24 02:10:14;;;;;;;68.10;46.42;;;;;;;17.20;100.00;101458.66;1946885;28;20031;-70
2022/08/24 02:11:11;;;;;;;69.40;45.22;;;;;;;17.21;100.00;101470.94;1946939;29;20501;-70
2022/08/24 02:12:09;;;;;;;68.40;45.05;;;;;;;17.20;100.00;101462.16;1946813;29;20035;-70
2022/08/24 02:13:07;;;;;;;66.32;45.83;;;;;;;17.19;100.00;101464.88;1946917;29;20031;-70
2022/08/24 02:14:05;;;;;;;64.45;44.65;;;;;;;17.19;100.00;101460.47;1946880;29;20069;-70
2022/08/24 02:15:07;;;;;;;68.15;43.58;;;;;;;17.18;100.00;101461.41;1947135;29;20035;-70
2022/08/24 02:16:05;;;;;;;67.45;45.42;;;;;;;17.16;100.00;101460.66;1947023;28;20114;-70
2022/08/24 02:17:07;;;;;;;69.40;45.50;;;;;;;17.15;100.00;101464.25;1946994;28;20550;-70
2022/08/24 02:18:08;;;;;;;71.00;47.88;;;;;;;17.14;100.00;101467.78;1946329;29;20049;-70
2022/08/24 02:19:05;;;;;;;70.93;46.63;;;;;;;17.13;100.00;101460.84;1946509;29;20475;-70
2022/08/24 02:20:05;;;;;;;75.95;49.00;;;;;;;17.12;100.00;101459.16;1946848;29;20031;-70
2022/08/24 02:21:02;;;;;;;74.10;47.78;;;;;;;17.11;100.00;101460.09;1947095;28;20052;-70
2022/08/24 02:22:01;;;;;;;76.30;48.55;;;;;;;17.12;100.00;101464.41;1946389;29;20034;-70
2022/08/24 02:22:58;;;;;;;73.30;50.08;;;;;;;17.11;100.00;101462.72;1946380;28;20080;-70
2022/08/24 02:23:56;;;;;;;77.70;48.50;;;;;;;17.10;100.00;101461.88;1946992;29;20102;-71
2022/08/24 02:24:53;;;;;;;78.07;49.63;;;;;;;17.10;100.00;101466.28;1947107;29;20031;-69
2022/08/24 02:25:51;;;;;;;81.40;50.92;;;;;;;17.08;100.00;101468.19;1947055;29;20034;-69
2022/08/24 02:26:48;;;;;;;74.20;48.17;;;;;;;17.08;100.00;101461.09;1944106;29;20081;-70
2022/08/24 02:27:46;;;;;;;73.13;48.53;;;;;;;17.07;100.00;101462.06;1946365;29;20033;-70
2022/08/24 02:28:43;;;;;;;75.75;48.88;;;;;;;17.07;100.00;101466.50;1946898;29;20042;-70
2022/08/24 02:29:42;;;;;;;82.03;50.60;;;;;;;17.06;100.00;101476.19;1947004;29;20102;-70
2022/08/24 02:30:39;;;;;;;76.28;48.10;;;;;;;17.06;100.00;101470.91;1946943;28;20035;-70
2022/08/24 02:31:37;;;;;;;71.68;47.72;;;;;;;17.08;100.00;101468.19;1947035;29;20026;-70
2022/08/24 02:32:34;;;;;;;77.70;49.33;;;;;;;17.08;100.00;101470.81;1946878;29;20065;-70
2022/08/24 02:33:34;;;;;;;71.80;47.80;;;;;;;17.09;100.00;101476.00;1946990;29;20065;-70
2022/08/24 02:34:31;;;;;;;71.43;47.17;;;;;;;17.08;100.00;101479.56;1946901;29;20186;-70
2022/08/24 02:35:29;;;;;;;79.38;49.75;;;;;;;17.10;100.00;101482.09;1946988;29;20066;-70
2022/08/24 02:36:28;;;;;;;77.57;49.50;;;;;;;17.10;100.00;101482.09;1947105;29;20031;-70
2022/08/24 02:37:25;;;;;;;78.63;49.67;;;;;;;17.09;100.00;101480.41;1946969;28;20037;-70
2022/08/24 02:38:23;;;;;;;78.85;48.75;;;;;;;17.07;100.00;101483.16;1946986;29;20047;-70
2022/08/24 02:39:20;;;;;;;75.80;48.53;;;;;;;17.05;100.00;101479.78;1953841;28;20026;-70
2022/08/24 02:40:18;;;;;;;84.05;50.72;;;;;;;17.04;100.00;101478.03;1953942;28;20551;-70
2022/08/24 02:41:15;;;;;;;77.45;49.75;;;;;;;17.04;100.00;101477.19;1947245;28;20028;-70
2022/08/24 02:42:14;;;;;;;82.50;50.88;;;;;;;17.04;100.00;101485.09;1946907;29;20035;-70
2022/08/24 02:43:12;;;;;;;79.30;50.72;;;;;;;17.03;100.00;101483.38;1946780;29;20035;-69
2022/08/24 02:44:10;;;;;;;84.72;51.33;;;;;;;17.04;100.00;101482.47;1946946;29;20027;-70
2022/08/24 02:45:09;;;;;;;80.93;50.25;;;;;;;17.02;100.00;101479.06;1946285;29;20058;-70
2022/08/24 02:46:07;;;;;;;81.68;51.75;;;;;;;17.01;100.00;101482.63;1946530;29;20042;-70
2022/08/24 02:47:04;;;;;;;81.03;50.70;;;;;;;16.99;100.00;101483.59;1946826;28;20462;-70
2022/08/24 02:48:02;;;;;;;82.53;51.53;;;;;;;16.97;100.00;101477.53;1946898;29;20039;-70
2022/08/24 02:48:59;;;;;;;86.13;50.60;;;;;;;16.95;100.00;101479.44;1946991;29;20098;-70
2022/08/24 02:49:57;;;;;;;80.22;52.03;;;;;;;16.94;100.00;101475.09;1946862;29;20616;-69
2022/08/24 02:50:54;;;;;;;89.43;54.40;;;;;;;16.94;100.00;101475.09;1947054;28;20066;-69
2022/08/24 02:51:52;;;;;;;90.20;55.50;;;;;;;16.94;100.00;101483.00;1946929;29;20470;-70
2022/08/24 02:52:49;;;;;;;95.25;55.55;;;;;;;16.95;100.00;101484.72;1947016;29;20410;-69
2022/08/24 02:53:47;;;;;;;98.35;55.13;;;;;;;16.95;100.00;101484.72;1946899;29;20109;-70
2022/08/24 02:54:44;;;;;;;96.38;54.75;;;;;;;16.96;100.00;101480.28;1946930;29;20471;-69
2022/08/24 02:55:43;;;;;;;94.78;56.53;;;;;;;16.94;100.00;101477.72;1953795;28;20023;-69
2022/08/24 02:56:40;;;;;;;97.28;55.72;;;;;;;16.93;100.00;101481.31;1951909;28;20037;-69
2022/08/24 02:57:39;;;;;;;92.10;54.30;;;;;;;16.93;100.00;101475.16;1947388;28;20031;-69
2022/08/24 02:58:37;;;;;;;94.97;56.75;;;;;;;16.92;100.00;101484.88;1946911;29;20031;-69
2022/08/24 02:59:34;;;;;;;97.60;55.90;;;;;;;16.93;100.00;101480.44;1946857;28;20498;-69
2022/08/24 03:00:32;;;;;;;97.38;56.10;;;;;;;16.92;100.00;101479.63;1947031;28;20031;-69
2022/08/24 03:01:29;;;;;;;103.50;58.60;;;;;;;16.91;100.00;101475.28;1946931;29;20031;-69
2022/08/24 03:02:26;;;;;;;99.30;57.25;;;;;;;16.93;100.00;101481.31;1946792;28;20057;-70
2022/08/24 03:03:24;;;;;;;97.20;56.63;;;;;;;16.93;100.00;101476.03;1946918;28;20043;-70
2022/08/24 03:04:21;;;;;;;98.35;58.10;;;;;;;16.91;100.00;101475.28;1946771;28;20038;-69
2022/08/24 03:05:20;;;;;;;103.10;57.50;;;;;;;16.91;100.00;101477.94;1946902;29;20031;-69
2022/08/24 03:06:18;;;;;;;103.82;59.25;;;;;;;16.89;100.00;101477.16;1946205;29;20402;-70
2022/08/24 03:07:15;;;;;;;106.53;58.17;;;;;;;16.90;100.00;101476.22;1946280;29;20059;-70
2022/08/24 03:08:12;;;;;;;109.30;59.22;;;;;;;16.89;100.00;101477.16;1946718;29;20492;-70
2022/08/24 03:09:11;;;;;;;103.22;58.13;;;;;;;16.88;100.00;101483.38;1946959;29;20115;-69
2022/08/24 03:10:09;;;;;;;107.80;59.50;;;;;;;16.88;100.00;101477.25;1946781;28;20035;-70
2022/08/24 03:11:07;;;;;;;102.78;58.50;;;;;;;16.87;100.00;101476.41;1947000;28;20539;-70
2022/08/24 03:12:05;;;;;;;109.18;58.85;;;;;;;16.87;100.00;101471.16;1946864;29;20035;-70
2022/08/24 03:13:03;;;;;;;101.07;58.33;;;;;;;16.89;100.00;101471.88;1946890;29;20031;-70
2022/08/24 03:14:00;;;;;;;105.40;57.67;;;;;;;16.87;100.00;101471.16;1946854;29;20422;-70
2022/08/24 03:14:58;;;;;;;96.95;55.47;;;;;;;16.86;100.00;101470.28;1946864;29;20035;-70
2022/08/24 03:15:57;;;;;;;94.28;55.30;;;;;;;16.85;100.00;101473.00;1946874;29;20027;-70
2022/08/24 03:16:54;;;;;;;96.15;56.55;;;;;;;16.84;100.00;101473.94;1946809;29;20027;-70
2022/08/24 03:17:52;;;;;;;104.13;56.95;;;;;;;16.84;100.00;101471.31;1946853;29;20051;-70
2022/08/24 03:18:49;;;;;;;97.35;55.03;;;;;;;16.83;100.00;101474.88;1946790;29;20031;-70
2022/08/24 03:19:47;;;;;;;103.10;57.10;;;;;;;16.79;100.00;101474.22;1946821;29;20455;-70
2022/08/24 03:20:44;;;;;;;96.22;56.78;;;;;;;16.79;100.00;101473.34;1946818;29;20055;-70
2022/08/24 03:21:41;;;;;;;113.28;59.85;;;;;;;16.79;100.00;101476.00;1946870;29;20094;-70
2022/08/24 03:22:40;;;;;;;96.22;56.58;;;;;;;16.78;100.00;101472.53;1946781;29;20031;-70
2022/08/24 03:23:38;;;;;;;109.72;58.42;;;;;;;16.78;100.00;101476.94;1946757;29;20103;-70
2022/08/24 03:24:35;;;;;;;112.88;59.92;;;;;;;16.78;100.00;101476.94;1946834;29;20039;-70
2022/08/24 03:25:32;;;;;;;107.97;59.03;;;;;;;16.79;100.00;101473.34;1946187;29;20480;-70
2022/08/24 03:26:30;;;;;;;105.78;58.47;;;;;;;16.79;100.00;101473.34;1944705;29;20038;-70
2022/08/24 03:27:27;;;;;;;104.03;57.97;;;;;;;16.79;100.00;101478.63;1946026;28;20051;-70
2022/08/24 03:28:25;;;;;;;110.03;59.17;;;;;;;16.79;100.00;101468.09;1953715;28;20037;-69
2022/08/24 03:29:23;;;;;;;107.03;60.05;;;;;;;16.78;100.00;101469.88;1953854;28;20534;-69
2022/08/24 03:30:22;;;;;;;111.20;60.78;;;;;;;16.78;100.00;101472.53;1947505;28;20038;-70
2022/08/24 03:31:20;;;;;;;118.82;60.47;;;;;;;16.77;100.00;101469.97;1946719;29;20055;-69
2022/08/24 03:32:18;;;;;;;113.68;60.05;;;;;;;16.77;100.00;101470.84;1946638;29;20039;-69
2022/08/24 03:33:15;;;;;;;112.78;59.33;;;;;;;16.77;100.00;101477.88;1946776;28;20037;-69
2022/08/24 03:34:13;;;;;;;119.13;61.20;;;;;;;16.77;100.00;101469.97;1946831;28;20031;-69
2022/08/24 03:35:12;;;;;;;121.38;60.92;;;;;;;16.75;100.00;101472.69;1947365;29;20042;-70
2022/08/24 03:36:10;;;;;;;118.03;62.17;;;;;;;16.76;100.00;101465.66;1948115;29;20035;-70
2022/08/24 03:37:07;;;;;;;124.22;62.80;;;;;;;16.73;100.00;101462.25;1948128;29;20031;-70
2022/08/24 03:38:06;;;;;;;127.43;62.80;;;;;;;16.73;100.00;101467.50;1948182;29;20027;-70
2022/08/24 03:39:03;;;;;;;124.38;62.33;;;;;;;16.73;100.00;101464.03;1948121;29;20019;-69
2022/08/24 03:40:01;;;;;;;116.45;57.92;;;;;;;16.73;100.00;101470.16;1948096;28;20023;-69
2022/08/24 03:40:59;;;;;;;122.55;61.10;;;;;;;16.71;100.00;101461.50;1948170;28;20034;-70
2022/08/24 03:41:56;;;;;;;126.07;64.45;;;;;;;16.72;100.00;101462.34;1955134;28;20030;-69
2022/08/24 03:42:54;;;;;;;130.68;64.22;;;;;;;16.71;100.00;101463.28;1955112;28;20019;-69
2022/08/24 03:43:54;;;;;;;126.13;62.90;;;;;;;16.71;100.00;101460.66;1948678;28;20068;-70
2022/08/24 03:44:51;;;;;;;122.45;61.38;;;;;;;16.70;100.00;101466.88;1948173;29;20028;-69
2022/08/24 03:45:49;;;;;;;126.43;61.40;;;;;;;16.69;100.00;101463.38;1948041;29;20023;-70
2022/08/24 03:46:47;;;;;;;132.05;64.80;;;;;;;16.70;100.00;101466.88;1948046;29;20027;-70
2022/08/24 03:47:45;;;;;;;129.15;63.53;;;;;;;16.70;100.00;101462.41;1947885;29;20102;-69
2022/08/24 03:48:43;;;;;;;130.50;64.07;;;;;;;16.70;100.00;101465.06;1948088;28;20035;-69
2022/08/24 03:49:40;;;;;;;132.85;61.10;;;;;;;16.71;100.00;101468.56;1947975;29;20038;-69
2022/08/24 03:50:38;;;;;;;126.60;62.08;;;;;;;16.70;100.00;101462.41;1948056;29;20035;-69
2022/08/24 03:51:37;;;;;;;131.35;61.75;;;;;;;16.70;100.00;101469.50;1948083;28;20522;-69
2022/08/24 03:52:34;;;;;;;134.48;62.42;;;;;;;16.68;100.00;101459.03;1948095;29;20097;-70
2022/08/24 03:53:32;;;;;;;127.35;60.20;;;;;;;16.67;100.00;101465.25;1948013;28;20063;-69
2022/08/24 03:54:30;;;;;;;128.10;60.60;;;;;;;16.66;100.00;101463.53;1948054;29;20035;-69
2022/08/24 03:55:28;;;;;;;123.28;59.55;;;;;;;16.65;100.00;101461.84;1948039;29;20038;-69
2022/08/24 03:56:26;;;;;;;118.18;61.00;;;;;;;16.65;100.00;101463.63;1946626;29;20070;-69
2022/08/24 03:57:23;;;;;;;126.72;60.88;;;;;;;16.63;100.00;101468.97;1946194;29;20035;-70
2022/08/24 03:58:21;;;;;;;113.85;57.63;;;;;;;16.63;100.00;101463.72;1947875;29;20034;-69
2022/08/24 03:59:18;;;;;;;124.95;60.50;;;;;;;16.64;100.00;101465.44;1948008;29;20110;-69
2022/08/24 04:00:16;;;;;;;120.50;59.08;;;;;;;16.63;100.00;101466.34;1947965;29;20031;-69
2022/08/24 04:01:16;;;;;;;121.40;59.88;;;;;;;16.64;100.00;101464.56;1947324;29;20059;-69
2022/08/24 04:02:14;;;;;;;114.35;58.05;;;;;;;16.62;100.00;101466.47;1947202;28;20513;-69
2022/08/24 04:03:14;;;;;;;113.20;57.63;;;;;;;16.61;100.00;101465.59;1947979;29;20039;-69
2022/08/24 04:04:11;;;;;;;109.78;56.55;;;;;;;16.59;100.00;101460.41;1947691;29;20027;-69
2022/08/24 04:05:09;;;;;;;109.82;57.60;;;;;;;16.58;100.00;101465.78;1954752;28;20498;-69
2022/08/24 04:06:09;;;;;;;98.32;54.63;;;;;;;16.57;100.00;101474.63;1954790;28;20038;-69
2022/08/24 04:07:06;;;;;;;102.45;55.40;;;;;;;16.54;100.00;101464.25;1948154;28;20102;-69
2022/08/24 04:08:05;;;;;;;104.75;54.97;;;;;;;16.55;100.00;101468.59;1947754;29;20035;-69
2022/08/24 04:09:06;;;;;;;100.10;54.05;;;;;;;16.53;100.00;101462.56;1947783;29;20102;-69
2022/08/24 04:10:04;;;;;;;89.95;53.63;;;;;;;16.52;100.00;101466.16;1947860;29;20038;-69
2022/08/24 04:11:03;;;;;;;96.03;53.33;;;;;;;16.53;100.00;101470.47;1947932;29;20375;-69
2022/08/24 04:12:00;;;;;;;96.40;52.85;;;;;;;16.51;100.00;101472.34;1947890;29;20063;-69
2022/08/24 04:13:00;;;;;;;95.00;52.08;;;;;;;16.50;100.00;101465.38;1947817;28;20023;-70
2022/08/24 04:13:57;;;;;;;97.83;54.07;;;;;;;16.47;100.00;101472.53;1947951;29;20382;-69
2022/08/24 04:14:55;;;;;;;98.82;54.90;;;;;;;16.44;100.00;101472.72;1947862;28;20278;-69
2022/08/24 04:15:52;;;;;;;95.85;53.95;;;;;;;16.45;100.00;101468.25;1947885;29;20023;-69
2022/08/24 04:16:49;;;;;;;102.18;55.70;;;;;;;16.45;100.00;101478.81;1947811;28;20027;-70
2022/08/24 04:17:47;;;;;;;95.35;52.75;;;;;;;16.44;100.00;101477.97;1947870;29;20027;-69
2022/08/24 04:18:45;;;;;;;93.80;53.55;;;;;;;16.43;100.00;101470.97;1947894;28;20463;-69
2022/08/24 04:19:56;;;;;;;94.93;53.75;;;;;;;16.44;100.00;101474.47;1947813;29;20074;-69
2022/08/24 04:20:53;;;;;;;94.57;52.78;;;;;;;16.39;100.00;101474.72;1947825;29;20494;-69
2022/08/24 04:21:51;;;;;;;99.90;55.58;;;;;;;16.40;100.00;101472.97;1947859;29;20027;-69
2022/08/24 04:22:50;;;;;;;103.32;56.15;;;;;;;16.41;100.00;101477.28;1947822;29;20023;-69
2022/08/24 04:23:50;;;;;;;101.05;55.15;;;;;;;16.40;100.00;101473.81;1947759;28;20081;-69
2022/08/24 04:24:48;;;;;;;101.88;56.03;;;;;;;16.41;100.00;101478.16;1954816;28;20030;-69
2022/08/24 04:25:47;;;;;;;102.90;55.42;;;;;;;16.43;100.00;101481.53;1954822;28;20015;-69
2022/08/24 04:26:45;;;;;;;101.47;55.95;;;;;;;16.42;100.00;101479.00;1946346;28;20844;-69
2022/08/24 04:27:43;;;;;;;103.63;54.08;;;;;;;16.42;100.00;101479.84;1947451;29;20650;-69
2022/08/24 04:28:41;;;;;;;104.03;55.58;;;;;;;16.41;100.00;101477.28;1947746;29;20031;-69